sensor_id;sensor_type;location;lat;lon;timestamp;P1;durP1;ratioP1;P2;durP2;ratioP2
70543;SDS011;58097;48.364;-1.224;2023-11-19T00:00:51;6.68;;;2.50;;
70543;SDS011;58097;48.364;-1.224;2023-11-19T00:03:17;8.52;;;2.10;;
70543;SDS011;58097;48.364;-1.224;2023-11-19T00:05:42;9.98;;;2.22;;
70543;SDS011;58097;48.364;-1.224;2023-11-19T00:08:08;9.77;;;1.75;;
70543;SDS011;58097;48.364;-1.224;2023-11-19T00:10:33;7.57;;;1.83;;
70543;SDS011;58097;48.364;-1.224;2023-11-19T00:12:59;10.68;;;2.00;;
70543;SDS011;58097;48.364;-1.224;2023-11-19T00:15:24;9.27;;;1.80;;
70543;SDS011;58097;48.364;-1.224;2023-11-19T00:17:50;11.45;;;2.40;;
70543;SDS011;58097;48.364;-1.224;2023-11-19T00:20:16;5.43;;;1.83;;
70543;SDS011;58097;48.364;-1.224;2023-11-19T00:22:43;11.48;;;2.55;;
70543;SDS011;58097;48.364;-1.224;2023-11-19T00:25:09;10.25;;;2.10;;
70543;SDS011;58097;48.364;-1.224;2023-11-19T00:27:35;9.27;;;2.10;;
70543;SDS011;58097;48.364;-1.224;2023-11-19T00:30:02;7.05;;;1.50;;
70543;SDS011;58097;48.364;-1.224;2023-11-19T00:32:30;5.45;;;1.50;;
70543;SDS011;58097;48.364;-1.224;2023-11-19T00:34:55;7.95;;;1.60;;
70543;SDS011;58097;48.364;-1.224;2023-11-19T00:37:21;11.95;;;2.20;;
70543;SDS011;58097;48.364;-1.224;2023-11-19T00:39:46;8.85;;;1.70;;
70543;SDS011;58097;48.364;-1.224;2023-11-19T00:42:11;15.13;;;2.22;;
70543;SDS011;58097;48.364;-1.224;2023-11-19T00:44:37;16.45;;;1.98;;
70543;SDS011;58097;48.364;-1.224;2023-11-19T00:47:02;8.30;;;1.88;;
70543;SDS011;58097;48.364;-1.224;2023-11-19T00:49:28;9.57;;;1.77;;
70543;SDS011;58097;48.364;-1.224;2023-11-19T00:51:53;9.82;;;1.75;;
70543;SDS011;58097;48.364;-1.224;2023-11-19T00:54:18;10.32;;;1.90;;
70543;SDS011;58097;48.364;-1.224;2023-11-19T00:56:44;8.00;;;1.77;;
70543;SDS011;58097;48.364;-1.224;2023-11-19T00:59:09;5.47;;;2.47;;
70543;SDS011;58097;48.364;-1.224;2023-11-19T01:01:35;9.98;;;2.45;;
70543;SDS011;58097;48.364;-1.224;2023-11-19T01:04:00;8.68;;;2.35;;
70543;SDS011;58097;48.364;-1.224;2023-11-19T01:06:26;8.00;;;2.40;;
70543;SDS011;58097;48.364;-1.224;2023-11-19T01:08:52;9.80;;;2.28;;
70543;SDS011;58097;48.364;-1.224;2023-11-19T01:11:21;11.73;;;2.53;;
70543;SDS011;58097;48.364;-1.224;2023-11-19T01:13:46;13.98;;;2.67;;
70543;SDS011;58097;48.364;-1.224;2023-11-19T01:16:12;9.63;;;2.00;;
70543;SDS011;58097;48.364;-1.224;2023-11-19T01:18:38;10.00;;;2.00;;
70543;SDS011;58097;48.364;-1.224;2023-11-19T01:21:04;15.73;;;2.70;;
70543;SDS011;58097;48.364;-1.224;2023-11-19T01:23:29;6.55;;;1.75;;
70543;SDS011;58097;48.364;-1.224;2023-11-19T01:25:55;12.00;;;2.60;;
70543;SDS011;58097;48.364;-1.224;2023-11-19T01:28:20;6.18;;;1.52;;
70543;SDS011;58097;48.364;-1.224;2023-11-19T01:30:45;7.10;;;2.30;;
70543;SDS011;58097;48.364;-1.224;2023-11-19T01:33:11;7.22;;;2.45;;
70543;SDS011;58097;48.364;-1.224;2023-11-19T01:35:36;12.02;;;2.53;;
70543;SDS011;58097;48.364;-1.224;2023-11-19T01:38:01;11.32;;;2.72;;
70543;SDS011;58097;48.364;-1.224;2023-11-19T01:40:27;6.32;;;2.30;;
70543;SDS011;58097;48.364;-1.224;2023-11-19T01:42:52;11.45;;;2.70;;
70543;SDS011;58097;48.364;-1.224;2023-11-19T01:45:27;17.70;;;2.35;;
70543;SDS011;58097;48.364;-1.224;2023-11-19T01:47:54;15.80;;;2.60;;
70543;SDS011;58097;48.364;-1.224;2023-11-19T01:50:20;15.00;;;3.15;;
70543;SDS011;58097;48.364;-1.224;2023-11-19T01:52:47;17.73;;;2.88;;
70543;SDS011;58097;48.364;-1.224;2023-11-19T01:55:13;13.85;;;2.75;;
70543;SDS011;58097;48.364;-1.224;2023-11-19T01:57:39;16.85;;;3.03;;
70543;SDS011;58097;48.364;-1.224;2023-11-19T02:00:06;15.10;;;2.75;;
70543;SDS011;58097;48.364;-1.224;2023-11-19T02:02:36;24.10;;;3.97;;
70543;SDS011;58097;48.364;-1.224;2023-11-19T02:05:02;20.30;;;3.85;;
70543;SDS011;58097;48.364;-1.224;2023-11-19T02:07:28;13.40;;;2.70;;
70543;SDS011;58097;48.364;-1.224;2023-11-19T02:09:53;15.63;;;3.28;;
70543;SDS011;58097;48.364;-1.224;2023-11-19T02:12:19;19.10;;;3.60;;
70543;SDS011;58097;48.364;-1.224;2023-11-19T02:14:45;19.75;;;3.10;;
70543;SDS011;58097;48.364;-1.224;2023-11-19T02:17:29;21.67;;;4.13;;
70543;SDS011;58097;48.364;-1.224;2023-11-19T02:19:59;19.27;;;4.50;;
70543;SDS011;58097;48.364;-1.224;2023-11-19T02:22:25;16.13;;;2.97;;
70543;SDS011;58097;48.364;-1.224;2023-11-19T02:24:53;25.15;;;3.97;;
70543;SDS011;58097;48.364;-1.224;2023-11-19T02:27:46;20.83;;;3.60;;
70543;SDS011;58097;48.364;-1.224;2023-11-19T02:30:20;25.38;;;3.60;;
70543;SDS011;58097;48.364;-1.224;2023-11-19T02:32:46;22.95;;;4.22;;
70543;SDS011;58097;48.364;-1.224;2023-11-19T02:35:12;25.15;;;3.58;;
70543;SDS011;58097;48.364;-1.224;2023-11-19T02:37:38;25.40;;;3.55;;
70543;SDS011;58097;48.364;-1.224;2023-11-19T02:40:04;43.28;;;5.60;;
70543;SDS011;58097;48.364;-1.224;2023-11-19T02:42:30;26.92;;;3.33;;
70543;SDS011;58097;48.364;-1.224;2023-11-19T02:44:56;23.02;;;5.20;;
70543;SDS011;58097;48.364;-1.224;2023-11-19T02:47:21;22.85;;;3.13;;
70543;SDS011;58097;48.364;-1.224;2023-11-19T02:49:49;27.80;;;4.15;;
70543;SDS011;58097;48.364;-1.224;2023-11-19T02:52:15;23.67;;;4.78;;
70543;SDS011;58097;48.364;-1.224;2023-11-19T02:54:40;24.63;;;3.78;;
70543;SDS011;58097;48.364;-1.224;2023-11-19T02:57:07;29.95;;;4.35;;
70543;SDS011;58097;48.364;-1.224;2023-11-19T02:59:37;26.75;;;4.43;;
70543;SDS011;58097;48.364;-1.224;2023-11-19T03:02:08;20.40;;;2.95;;
70543;SDS011;58097;48.364;-1.224;2023-11-19T03:04:41;21.65;;;4.10;;
70543;SDS011;58097;48.364;-1.224;2023-11-19T03:07:08;29.30;;;3.47;;
70543;SDS011;58097;48.364;-1.224;2023-11-19T03:09:34;21.90;;;3.72;;
70543;SDS011;58097;48.364;-1.224;2023-11-19T03:12:05;32.67;;;5.85;;
70543;SDS011;58097;48.364;-1.224;2023-11-19T03:14:33;24.83;;;4.32;;
70543;SDS011;58097;48.364;-1.224;2023-11-19T03:16:59;20.88;;;3.50;;
70543;SDS011;58097;48.364;-1.224;2023-11-19T03:19:25;26.75;;;4.80;;
70543;SDS011;58097;48.364;-1.224;2023-11-19T03:21:51;21.05;;;4.60;;
70543;SDS011;58097;48.364;-1.224;2023-11-19T03:24:17;34.65;;;4.20;;
70543;SDS011;58097;48.364;-1.224;2023-11-19T03:26:42;27.00;;;4.05;;
70543;SDS011;58097;48.364;-1.224;2023-11-19T03:29:07;28.33;;;5.15;;
70543;SDS011;58097;48.364;-1.224;2023-11-19T03:31:33;29.25;;;3.90;;
70543;SDS011;58097;48.364;-1.224;2023-11-19T03:33:58;22.75;;;4.43;;
70543;SDS011;58097;48.364;-1.224;2023-11-19T03:36:24;23.83;;;3.92;;
70543;SDS011;58097;48.364;-1.224;2023-11-19T03:38:49;25.75;;;3.75;;
70543;SDS011;58097;48.364;-1.224;2023-11-19T03:41:14;29.73;;;4.20;;
70543;SDS011;58097;48.364;-1.224;2023-11-19T03:43:41;17.35;;;4.13;;
70543;SDS011;58097;48.364;-1.224;2023-11-19T03:46:19;20.02;;;3.97;;
70543;SDS011;58097;48.364;-1.224;2023-11-19T03:48:48;33.58;;;4.20;;
70543;SDS011;58097;48.364;-1.224;2023-11-19T03:51:14;29.98;;;5.00;;
70543;SDS011;58097;48.364;-1.224;2023-11-19T03:53:44;16.85;;;3.15;;
70543;SDS011;58097;48.364;-1.224;2023-11-19T03:56:10;32.08;;;5.00;;
70543;SDS011;58097;48.364;-1.224;2023-11-19T03:58:37;25.48;;;4.15;;
70543;SDS011;58097;48.364;-1.224;2023-11-19T04:01:03;26.40;;;4.85;;
70543;SDS011;58097;48.364;-1.224;2023-11-19T04:03:35;25.23;;;3.53;;
70543;SDS011;58097;48.364;-1.224;2023-11-19T04:06:01;23.48;;;4.47;;
70543;SDS011;58097;48.364;-1.224;2023-11-19T04:08:27;30.65;;;4.90;;
70543;SDS011;58097;48.364;-1.224;2023-11-19T04:10:52;26.35;;;4.20;;
70543;SDS011;58097;48.364;-1.224;2023-11-19T04:13:18;26.85;;;4.70;;
70543;SDS011;58097;48.364;-1.224;2023-11-19T04:15:44;33.00;;;4.53;;
70543;SDS011;58097;48.364;-1.224;2023-11-19T04:18:10;28.10;;;4.35;;
70543;SDS011;58097;48.364;-1.224;2023-11-19T04:20:35;21.25;;;3.88;;
70543;SDS011;58097;48.364;-1.224;2023-11-19T04:23:01;28.05;;;5.13;;
70543;SDS011;58097;48.364;-1.224;2023-11-19T04:25:27;29.85;;;4.45;;
70543;SDS011;58097;48.364;-1.224;2023-11-19T04:27:52;28.40;;;4.55;;
70543;SDS011;58097;48.364;-1.224;2023-11-19T04:30:18;28.95;;;4.25;;
70543;SDS011;58097;48.364;-1.224;2023-11-19T04:32:43;23.60;;;5.20;;
70543;SDS011;58097;48.364;-1.224;2023-11-19T04:35:09;27.92;;;4.20;;
70543;SDS011;58097;48.364;-1.224;2023-11-19T04:37:34;21.25;;;3.85;;
70543;SDS011;58097;48.364;-1.224;2023-11-19T04:40:00;28.00;;;4.65;;
70543;SDS011;58097;48.364;-1.224;2023-11-19T04:42:26;29.77;;;4.28;;
70543;SDS011;58097;48.364;-1.224;2023-11-19T04:44:51;27.42;;;4.60;;
70543;SDS011;58097;48.364;-1.224;2023-11-19T04:47:17;27.25;;;5.05;;
70543;SDS011;58097;48.364;-1.224;2023-11-19T04:49:42;34.42;;;4.63;;
70543;SDS011;58097;48.364;-1.224;2023-11-19T04:52:08;26.13;;;4.72;;
70543;SDS011;58097;48.364;-1.224;2023-11-19T04:54:33;30.92;;;5.18;;
70543;SDS011;58097;48.364;-1.224;2023-11-19T04:56:59;24.65;;;4.32;;
70543;SDS011;58097;48.364;-1.224;2023-11-19T04:59:24;24.80;;;3.53;;
70543;SDS011;58097;48.364;-1.224;2023-11-19T05:01:49;30.33;;;4.18;;
70543;SDS011;58097;48.364;-1.224;2023-11-19T05:04:15;20.20;;;4.47;;
70543;SDS011;58097;48.364;-1.224;2023-11-19T05:06:41;25.02;;;4.80;;
70543;SDS011;58097;48.364;-1.224;2023-11-19T05:09:06;28.48;;;5.97;;
70543;SDS011;58097;48.364;-1.224;2023-11-19T05:11:34;33.35;;;3.95;;
70543;SDS011;58097;48.364;-1.224;2023-11-19T05:14:00;22.70;;;4.22;;
70543;SDS011;58097;48.364;-1.224;2023-11-19T05:16:29;27.88;;;4.53;;
70543;SDS011;58097;48.364;-1.224;2023-11-19T05:18:54;30.63;;;4.45;;
70543;SDS011;58097;48.364;-1.224;2023-11-19T05:21:20;39.20;;;5.72;;
70543;SDS011;58097;48.364;-1.224;2023-11-19T05:23:46;35.08;;;5.85;;
70543;SDS011;58097;48.364;-1.224;2023-11-19T05:26:21;38.75;;;4.25;;
70543;SDS011;58097;48.364;-1.224;2023-11-19T05:28:48;27.25;;;3.95;;
70543;SDS011;58097;48.364;-1.224;2023-11-19T05:31:15;30.90;;;4.85;;
70543;SDS011;58097;48.364;-1.224;2023-11-19T05:33:41;17.33;;;3.92;;
70543;SDS011;58097;48.364;-1.224;2023-11-19T05:36:07;29.42;;;4.72;;
70543;SDS011;58097;48.364;-1.224;2023-11-19T05:38:33;31.58;;;5.47;;
70543;SDS011;58097;48.364;-1.224;2023-11-19T05:40:59;31.90;;;5.13;;
70543;SDS011;58097;48.364;-1.224;2023-11-19T05:43:24;34.35;;;5.00;;
70543;SDS011;58097;48.364;-1.224;2023-11-19T05:45:50;31.65;;;5.07;;
70543;SDS011;58097;48.364;-1.224;2023-11-19T05:48:15;29.88;;;6.00;;
70543;SDS011;58097;48.364;-1.224;2023-11-19T05:50:41;22.85;;;4.18;;
70543;SDS011;58097;48.364;-1.224;2023-11-19T05:53:07;37.15;;;5.35;;
70543;SDS011;58097;48.364;-1.224;2023-11-19T05:55:35;24.00;;;4.63;;
70543;SDS011;58097;48.364;-1.224;2023-11-19T05:58:02;38.08;;;5.38;;
70543;SDS011;58097;48.364;-1.224;2023-11-19T06:00:29;39.50;;;6.18;;
70543;SDS011;58097;48.364;-1.224;2023-11-19T06:02:55;26.80;;;5.45;;
70543;SDS011;58097;48.364;-1.224;2023-11-19T06:05:21;31.52;;;6.00;;
70543;SDS011;58097;48.364;-1.224;2023-11-19T06:07:46;37.33;;;5.43;;
70543;SDS011;58097;48.364;-1.224;2023-11-19T06:10:11;46.53;;;5.90;;
70543;SDS011;58097;48.364;-1.224;2023-11-19T06:12:39;47.03;;;6.65;;
70543;SDS011;58097;48.364;-1.224;2023-11-19T06:15:06;43.58;;;7.07;;
70543;SDS011;58097;48.364;-1.224;2023-11-19T06:17:33;36.15;;;5.35;;
70543;SDS011;58097;48.364;-1.224;2023-11-19T06:20:19;45.70;;;5.70;;
70543;SDS011;58097;48.364;-1.224;2023-11-19T06:22:45;35.20;;;4.63;;
70543;SDS011;58097;48.364;-1.224;2023-11-19T06:25:10;28.38;;;4.82;;
70543;SDS011;58097;48.364;-1.224;2023-11-19T06:27:36;35.42;;;5.38;;
70543;SDS011;58097;48.364;-1.224;2023-11-19T06:30:01;39.15;;;5.03;;
70543;SDS011;58097;48.364;-1.224;2023-11-19T06:32:27;37.95;;;4.05;;
70543;SDS011;58097;48.364;-1.224;2023-11-19T06:34:53;36.28;;;5.80;;
70543;SDS011;58097;48.364;-1.224;2023-11-19T06:37:18;41.95;;;5.97;;
70543;SDS011;58097;48.364;-1.224;2023-11-19T06:39:44;52.13;;;5.88;;
70543;SDS011;58097;48.364;-1.224;2023-11-19T06:42:09;41.33;;;7.00;;
70543;SDS011;58097;48.364;-1.224;2023-11-19T06:44:35;40.83;;;5.32;;
70543;SDS011;58097;48.364;-1.224;2023-11-19T06:47:00;43.08;;;7.28;;
70543;SDS011;58097;48.364;-1.224;2023-11-19T06:49:25;32.28;;;4.43;;
70543;SDS011;58097;48.364;-1.224;2023-11-19T06:51:51;33.03;;;5.18;;
70543;SDS011;58097;48.364;-1.224;2023-11-19T06:54:16;34.95;;;4.80;;
70543;SDS011;58097;48.364;-1.224;2023-11-19T06:56:41;39.33;;;5.43;;
70543;SDS011;58097;48.364;-1.224;2023-11-19T06:59:07;31.13;;;4.47;;
70543;SDS011;58097;48.364;-1.224;2023-11-19T07:01:36;32.42;;;5.90;;
70543;SDS011;58097;48.364;-1.224;2023-11-19T07:04:01;41.55;;;5.97;;
70543;SDS011;58097;48.364;-1.224;2023-11-19T07:06:33;30.15;;;4.60;;
70543;SDS011;58097;48.364;-1.224;2023-11-19T07:08:59;43.10;;;5.13;;
70543;SDS011;58097;48.364;-1.224;2023-11-19T07:11:27;40.42;;;5.35;;
70543;SDS011;58097;48.364;-1.224;2023-11-19T07:13:52;39.55;;;4.95;;
70543;SDS011;58097;48.364;-1.224;2023-11-19T07:16:19;44.80;;;6.07;;
70543;SDS011;58097;48.364;-1.224;2023-11-19T07:18:46;31.25;;;5.22;;
70543;SDS011;58097;48.364;-1.224;2023-11-19T07:21:15;35.63;;;5.22;;
70543;SDS011;58097;48.364;-1.224;2023-11-19T07:23:40;36.45;;;5.13;;
70543;SDS011;58097;48.364;-1.224;2023-11-19T07:26:06;40.08;;;6.25;;
70543;SDS011;58097;48.364;-1.224;2023-11-19T07:28:34;35.15;;;6.47;;
70543;SDS011;58097;48.364;-1.224;2023-11-19T07:31:00;35.63;;;4.95;;
70543;SDS011;58097;48.364;-1.224;2023-11-19T07:33:25;48.65;;;5.78;;
70543;SDS011;58097;48.364;-1.224;2023-11-19T07:35:51;34.35;;;6.22;;
70543;SDS011;58097;48.364;-1.224;2023-11-19T07:38:16;26.50;;;4.85;;
70543;SDS011;58097;48.364;-1.224;2023-11-19T07:40:42;22.77;;;5.32;;
70543;SDS011;58097;48.364;-1.224;2023-11-19T07:43:07;36.90;;;5.43;;
70543;SDS011;58097;48.364;-1.224;2023-11-19T07:45:32;25.88;;;4.78;;
70543;SDS011;58097;48.364;-1.224;2023-11-19T07:47:59;36.85;;;5.68;;
70543;SDS011;58097;48.364;-1.224;2023-11-19T07:50:26;39.47;;;5.25;;
70543;SDS011;58097;48.364;-1.224;2023-11-19T07:52:51;19.17;;;5.60;;
70543;SDS011;58097;48.364;-1.224;2023-11-19T07:55:17;39.75;;;5.22;;
70543;SDS011;58097;48.364;-1.224;2023-11-19T07:57:42;40.85;;;6.05;;
70543;SDS011;58097;48.364;-1.224;2023-11-19T08:00:07;38.33;;;5.70;;
70543;SDS011;58097;48.364;-1.224;2023-11-19T08:02:37;33.30;;;5.47;;
70543;SDS011;58097;48.364;-1.224;2023-11-19T08:05:03;35.33;;;5.10;;
70543;SDS011;58097;48.364;-1.224;2023-11-19T08:07:28;36.85;;;5.78;;
70543;SDS011;58097;48.364;-1.224;2023-11-19T08:09:53;35.03;;;6.80;;
70543;SDS011;58097;48.364;-1.224;2023-11-19T08:12:19;45.42;;;5.05;;
70543;SDS011;58097;48.364;-1.224;2023-11-19T08:14:44;39.40;;;6.07;;
70543;SDS011;58097;48.364;-1.224;2023-11-19T08:17:10;39.50;;;5.32;;
70543;SDS011;58097;48.364;-1.224;2023-11-19T08:19:35;30.77;;;4.85;;
70543;SDS011;58097;48.364;-1.224;2023-11-19T08:22:01;52.35;;;6.07;;
70543;SDS011;58097;48.364;-1.224;2023-11-19T08:24:27;40.03;;;6.55;;
70543;SDS011;58097;48.364;-1.224;2023-11-19T08:26:53;31.33;;;5.28;;
70543;SDS011;58097;48.364;-1.224;2023-11-19T08:29:19;34.63;;;6.20;;
70543;SDS011;58097;48.364;-1.224;2023-11-19T08:31:44;49.25;;;7.03;;
70543;SDS011;58097;48.364;-1.224;2023-11-19T08:34:11;23.55;;;4.10;;
70543;SDS011;58097;48.364;-1.224;2023-11-19T08:36:36;46.00;;;5.35;;
70543;SDS011;58097;48.364;-1.224;2023-11-19T08:39:02;44.38;;;5.15;;
70543;SDS011;58097;48.364;-1.224;2023-11-19T08:41:28;38.17;;;5.15;;
70543;SDS011;58097;48.364;-1.224;2023-11-19T08:43:53;37.45;;;4.85;;
70543;SDS011;58097;48.364;-1.224;2023-11-19T08:46:18;43.25;;;4.90;;
70543;SDS011;58097;48.364;-1.224;2023-11-19T08:48:44;28.60;;;4.13;;
70543;SDS011;58097;48.364;-1.224;2023-11-19T08:51:11;35.63;;;5.47;;
70543;SDS011;58097;48.364;-1.224;2023-11-19T08:53:36;37.92;;;4.97;;
70543;SDS011;58097;48.364;-1.224;2023-11-19T08:56:01;35.08;;;5.93;;
70543;SDS011;58097;48.364;-1.224;2023-11-19T08:58:28;33.33;;;5.15;;
70543;SDS011;58097;48.364;-1.224;2023-11-19T09:00:53;40.13;;;5.35;;
70543;SDS011;58097;48.364;-1.224;2023-11-19T09:03:18;29.58;;;5.15;;
70543;SDS011;58097;48.364;-1.224;2023-11-19T09:05:45;29.30;;;4.25;;
70543;SDS011;58097;48.364;-1.224;2023-11-19T09:08:10;46.78;;;6.13;;
70543;SDS011;58097;48.364;-1.224;2023-11-19T09:10:36;35.72;;;4.82;;
70543;SDS011;58097;48.364;-1.224;2023-11-19T09:13:02;41.72;;;5.85;;
70543;SDS011;58097;48.364;-1.224;2023-11-19T09:15:28;35.10;;;4.90;;
70543;SDS011;58097;48.364;-1.224;2023-11-19T09:17:54;37.95;;;5.85;;
70543;SDS011;58097;48.364;-1.224;2023-11-19T09:20:19;36.67;;;5.65;;
70543;SDS011;58097;48.364;-1.224;2023-11-19T09:22:44;27.65;;;4.95;;
70543;SDS011;58097;48.364;-1.224;2023-11-19T09:25:11;35.60;;;6.00;;
70543;SDS011;58097;48.364;-1.224;2023-11-19T09:27:36;31.13;;;4.13;;
70543;SDS011;58097;48.364;-1.224;2023-11-19T09:30:01;30.67;;;6.18;;
70543;SDS011;58097;48.364;-1.224;2023-11-19T09:32:28;39.28;;;5.05;;
70543;SDS011;58097;48.364;-1.224;2023-11-19T09:34:54;41.92;;;4.93;;
70543;SDS011;58097;48.364;-1.224;2023-11-19T09:37:19;34.88;;;5.88;;
70543;SDS011;58097;48.364;-1.224;2023-11-19T09:39:44;27.20;;;5.68;;
70543;SDS011;58097;48.364;-1.224;2023-11-19T09:42:10;35.47;;;5.60;;
70543;SDS011;58097;48.364;-1.224;2023-11-19T09:44:36;43.58;;;5.72;;
70543;SDS011;58097;48.364;-1.224;2023-11-19T09:47:03;30.30;;;5.07;;
70543;SDS011;58097;48.364;-1.224;2023-11-19T09:49:30;39.38;;;6.68;;
70543;SDS011;58097;48.364;-1.224;2023-11-19T09:51:56;31.60;;;4.22;;
70543;SDS011;58097;48.364;-1.224;2023-11-19T09:54:21;41.85;;;5.10;;
70543;SDS011;58097;48.364;-1.224;2023-11-19T09:56:47;31.27;;;4.65;;
70543;SDS011;58097;48.364;-1.224;2023-11-19T09:59:12;42.63;;;4.88;;
70543;SDS011;58097;48.364;-1.224;2023-11-19T10:01:38;30.23;;;5.00;;
70543;SDS011;58097;48.364;-1.224;2023-11-19T10:04:05;40.72;;;10.90;;
70543;SDS011;58097;48.364;-1.224;2023-11-19T10:06:32;40.42;;;10.52;;
70543;SDS011;58097;48.364;-1.224;2023-11-19T10:08:57;35.58;;;9.88;;
70543;SDS011;58097;48.364;-1.224;2023-11-19T10:11:24;49.55;;;9.45;;
70543;SDS011;58097;48.364;-1.224;2023-11-19T10:13:49;37.45;;;10.52;;
70543;SDS011;58097;48.364;-1.224;2023-11-19T10:16:17;36.33;;;5.88;;
70543;SDS011;58097;48.364;-1.224;2023-11-19T10:18:44;45.30;;;8.32;;
70543;SDS011;58097;48.364;-1.224;2023-11-19T10:21:11;37.72;;;7.72;;
70543;SDS011;58097;48.364;-1.224;2023-11-19T10:23:51;25.42;;;4.25;;
70543;SDS011;58097;48.364;-1.224;2023-11-19T10:26:19;26.25;;;5.35;;
70543;SDS011;58097;48.364;-1.224;2023-11-19T10:28:48;39.38;;;5.10;;
70543;SDS011;58097;48.364;-1.224;2023-11-19T10:31:14;30.80;;;4.30;;
70543;SDS011;58097;48.364;-1.224;2023-11-19T10:33:40;25.30;;;4.75;;
70543;SDS011;58097;48.364;-1.224;2023-11-19T10:36:06;32.42;;;5.38;;
70543;SDS011;58097;48.364;-1.224;2023-11-19T10:38:32;29.52;;;3.95;;
70543;SDS011;58097;48.364;-1.224;2023-11-19T10:40:57;35.75;;;4.75;;
70543;SDS011;58097;48.364;-1.224;2023-11-19T10:43:24;35.13;;;4.75;;
70543;SDS011;58097;48.364;-1.224;2023-11-19T10:45:49;42.70;;;5.38;;
70543;SDS011;58097;48.364;-1.224;2023-11-19T10:48:16;37.80;;;4.45;;
70543;SDS011;58097;48.364;-1.224;2023-11-19T10:50:42;34.85;;;5.05;;
70543;SDS011;58097;48.364;-1.224;2023-11-19T10:53:10;32.05;;;4.60;;
70543;SDS011;58097;48.364;-1.224;2023-11-19T10:55:40;30.02;;;4.78;;
70543;SDS011;58097;48.364;-1.224;2023-11-19T10:58:09;38.10;;;4.30;;
70543;SDS011;58097;48.364;-1.224;2023-11-19T11:03:15;33.65;;;5.25;;
70543;SDS011;58097;48.364;-1.224;2023-11-19T11:05:48;27.02;;;4.15;;
70543;SDS011;58097;48.364;-1.224;2023-11-19T11:08:15;36.20;;;4.63;;
70543;SDS011;58097;48.364;-1.224;2023-11-19T11:10:59;33.83;;;6.10;;
70543;SDS011;58097;48.364;-1.224;2023-11-19T11:13:26;36.53;;;4.95;;
70543;SDS011;58097;48.364;-1.224;2023-11-19T11:15:56;30.17;;;4.05;;
70543;SDS011;58097;48.364;-1.224;2023-11-19T11:18:25;23.25;;;3.55;;
70543;SDS011;58097;48.364;-1.224;2023-11-19T11:20:55;33.55;;;4.45;;
70543;SDS011;58097;48.364;-1.224;2023-11-19T11:29:24;33.70;;;4.30;;
70543;SDS011;58097;48.364;-1.224;2023-11-19T11:34:53;30.40;;;5.18;;
70543;SDS011;58097;48.364;-1.224;2023-11-19T11:37:36;31.27;;;4.05;;
70543;SDS011;58097;48.364;-1.224;2023-11-19T11:40:13;33.78;;;5.43;;
70543;SDS011;58097;48.364;-1.224;2023-11-19T11:42:40;29.73;;;4.18;;
70543;SDS011;58097;48.364;-1.224;2023-11-19T11:45:10;31.42;;;5.22;;
70543;SDS011;58097;48.364;-1.224;2023-11-19T11:50:09;26.08;;;4.30;;
70543;SDS011;58097;48.364;-1.224;2023-11-19T11:58:01;36.10;;;4.53;;
70543;SDS011;58097;48.364;-1.224;2023-11-19T12:02:56;24.10;;;3.80;;
70543;SDS011;58097;48.364;-1.224;2023-11-19T12:05:25;27.55;;;5.10;;
70543;SDS011;58097;48.364;-1.224;2023-11-19T12:08:00;34.63;;;5.65;;
70543;SDS011;58097;48.364;-1.224;2023-11-19T12:10:30;27.42;;;4.75;;
70543;SDS011;58097;48.364;-1.224;2023-11-19T12:13:09;25.08;;;4.30;;
70543;SDS011;58097;48.364;-1.224;2023-11-19T12:18:21;26.02;;;4.78;;
70543;SDS011;58097;48.364;-1.224;2023-11-19T12:20:48;32.08;;;5.53;;
70543;SDS011;58097;48.364;-1.224;2023-11-19T12:23:14;29.42;;;4.50;;
70543;SDS011;58097;48.364;-1.224;2023-11-19T12:25:40;22.05;;;3.88;;
70543;SDS011;58097;48.364;-1.224;2023-11-19T12:28:11;28.63;;;3.90;;
70543;SDS011;58097;48.364;-1.224;2023-11-19T12:33:07;38.15;;;5.75;;
70543;SDS011;58097;48.364;-1.224;2023-11-19T12:35:38;29.50;;;3.67;;
70543;SDS011;58097;48.364;-1.224;2023-11-19T12:38:07;23.85;;;3.70;;
70543;SDS011;58097;48.364;-1.224;2023-11-19T12:40:32;22.33;;;2.88;;
70543;SDS011;58097;48.364;-1.224;2023-11-19T12:42:58;26.25;;;3.50;;
70543;SDS011;58097;48.364;-1.224;2023-11-19T12:45:25;26.30;;;4.15;;
70543;SDS011;58097;48.364;-1.224;2023-11-19T12:48:06;23.05;;;4.03;;
70543;SDS011;58097;48.364;-1.224;2023-11-19T12:53:21;21.20;;;3.50;;
70543;SDS011;58097;48.364;-1.224;2023-11-19T12:55:47;18.10;;;3.33;;
70543;SDS011;58097;48.364;-1.224;2023-11-19T13:01:00;27.30;;;3.92;;
70543;SDS011;58097;48.364;-1.224;2023-11-19T13:03:29;38.53;;;4.22;;
70543;SDS011;58097;48.364;-1.224;2023-11-19T13:06:06;35.65;;;5.50;;
70543;SDS011;58097;48.364;-1.224;2023-11-19T13:08:36;20.42;;;3.30;;
70543;SDS011;58097;48.364;-1.224;2023-11-19T13:11:03;28.90;;;4.00;;
70543;SDS011;58097;48.364;-1.224;2023-11-19T13:13:29;20.77;;;3.28;;
70543;SDS011;58097;48.364;-1.224;2023-11-19T13:16:04;26.08;;;4.05;;
70543;SDS011;58097;48.364;-1.224;2023-11-19T13:18:34;19.55;;;3.25;;
70543;SDS011;58097;48.364;-1.224;2023-11-19T13:20:59;30.08;;;3.95;;
70543;SDS011;58097;48.364;-1.224;2023-11-19T13:23:25;19.42;;;3.30;;
70543;SDS011;58097;48.364;-1.224;2023-11-19T13:25:50;23.20;;;3.70;;
70543;SDS011;58097;48.364;-1.224;2023-11-19T13:28:16;20.75;;;3.38;;
70543;SDS011;58097;48.364;-1.224;2023-11-19T13:30:41;26.80;;;4.88;;
70543;SDS011;58097;48.364;-1.224;2023-11-19T13:33:06;27.75;;;4.13;;
70543;SDS011;58097;48.364;-1.224;2023-11-19T13:38:13;28.83;;;3.45;;
70543;SDS011;58097;48.364;-1.224;2023-11-19T13:40:45;22.13;;;3.40;;
70543;SDS011;58097;48.364;-1.224;2023-11-19T13:43:10;21.30;;;4.50;;
70543;SDS011;58097;48.364;-1.224;2023-11-19T13:45:36;28.52;;;2.95;;
70543;SDS011;58097;48.364;-1.224;2023-11-19T13:48:02;20.67;;;4.35;;
70543;SDS011;58097;48.364;-1.224;2023-11-19T13:50:27;21.45;;;2.67;;
70543;SDS011;58097;48.364;-1.224;2023-11-19T13:52:54;17.40;;;2.83;;
70543;SDS011;58097;48.364;-1.224;2023-11-19T13:55:19;18.05;;;3.40;;
70543;SDS011;58097;48.364;-1.224;2023-11-19T13:57:45;25.92;;;4.40;;
70543;SDS011;58097;48.364;-1.224;2023-11-19T14:00:11;18.05;;;3.85;;
70543;SDS011;58097;48.364;-1.224;2023-11-19T14:02:44;24.05;;;3.50;;
70543;SDS011;58097;48.364;-1.224;2023-11-19T14:05:11;28.58;;;4.13;;
70543;SDS011;58097;48.364;-1.224;2023-11-19T14:07:37;14.73;;;2.85;;
70543;SDS011;58097;48.364;-1.224;2023-11-19T14:10:03;22.75;;;3.40;;
70543;SDS011;58097;48.364;-1.224;2023-11-19T14:12:30;27.50;;;4.18;;
70543;SDS011;58097;48.364;-1.224;2023-11-19T14:14:56;16.05;;;3.03;;
70543;SDS011;58097;48.364;-1.224;2023-11-19T14:17:21;18.75;;;4.25;;
70543;SDS011;58097;48.364;-1.224;2023-11-19T14:19:46;26.55;;;3.72;;
70543;SDS011;58097;48.364;-1.224;2023-11-19T14:22:12;24.88;;;4.47;;
70543;SDS011;58097;48.364;-1.224;2023-11-19T14:24:37;24.50;;;3.67;;
70543;SDS011;58097;48.364;-1.224;2023-11-19T14:27:03;20.83;;;3.65;;
70543;SDS011;58097;48.364;-1.224;2023-11-19T14:29:28;23.75;;;4.40;;
70543;SDS011;58097;48.364;-1.224;2023-11-19T14:31:55;20.73;;;4.18;;
70543;SDS011;58097;48.364;-1.224;2023-11-19T14:34:21;26.35;;;3.97;;
70543;SDS011;58097;48.364;-1.224;2023-11-19T14:36:47;20.20;;;3.25;;
70543;SDS011;58097;48.364;-1.224;2023-11-19T14:39:12;25.85;;;3.80;;
70543;SDS011;58097;48.364;-1.224;2023-11-19T14:41:38;16.77;;;2.85;;
70543;SDS011;58097;48.364;-1.224;2023-11-19T14:44:03;17.65;;;4.15;;
70543;SDS011;58097;48.364;-1.224;2023-11-19T14:46:30;24.88;;;3.55;;
70543;SDS011;58097;48.364;-1.224;2023-11-19T14:48:55;32.38;;;3.78;;
70543;SDS011;58097;48.364;-1.224;2023-11-19T14:51:21;23.67;;;3.45;;
70543;SDS011;58097;48.364;-1.224;2023-11-19T14:53:46;20.98;;;3.53;;
70543;SDS011;58097;48.364;-1.224;2023-11-19T14:56:12;22.42;;;4.50;;